sensor_id;sensor_type;location;lat;lon;timestamp;P1;durP1;ratioP1;P2;durP2;ratioP2
5393;SDS011;2720;52.396;10.064;2023-04-06T00:00:42;19.50;;;11.35;;
5393;SDS011;2720;52.396;10.064;2023-04-06T00:03:09;18.75;;;12.68;;
5393;SDS011;2720;52.396;10.064;2023-04-06T00:05:36;27.35;;;11.93;;
5393;SDS011;2720;52.396;10.064;2023-04-06T00:08:03;20.27;;;12.48;;
5393;SDS011;2720;52.396;10.064;2023-04-06T00:10:30;20.55;;;11.25;;
5393;SDS011;2720;52.396;10.064;2023-04-06T00:12:57;23.88;;;12.35;;
5393;SDS011;2720;52.396;10.064;2023-04-06T00:15:25;19.35;;;11.98;;
5393;SDS011;2720;52.396;10.064;2023-04-06T00:17:54;22.25;;;13.73;;
5393;SDS011;2720;52.396;10.064;2023-04-06T00:20:22;23.25;;;13.10;;
5393;SDS011;2720;52.396;10.064;2023-04-06T00:22:49;24.58;;;13.23;;
5393;SDS011;2720;52.396;10.064;2023-04-06T00:25:16;23.60;;;14.00;;
5393;SDS011;2720;52.396;10.064;2023-04-06T00:27:43;19.38;;;13.60;;
5393;SDS011;2720;52.396;10.064;2023-04-06T00:30:10;25.63;;;14.45;;
5393;SDS011;2720;52.396;10.064;2023-04-06T00:32:37;21.10;;;13.45;;
5393;SDS011;2720;52.396;10.064;2023-04-06T00:35:06;24.33;;;13.05;;
5393;SDS011;2720;52.396;10.064;2023-04-06T00:37:34;27.83;;;14.77;;
5393;SDS011;2720;52.396;10.064;2023-04-06T00:40:01;26.65;;;14.40;;
5393;SDS011;2720;52.396;10.064;2023-04-06T00:42:28;28.48;;;15.80;;
5393;SDS011;2720;52.396;10.064;2023-04-06T00:44:56;23.48;;;14.63;;
5393;SDS011;2720;52.396;10.064;2023-04-06T00:47:24;23.85;;;15.15;;
5393;SDS011;2720;52.396;10.064;2023-04-06T00:49:52;25.95;;;16.80;;
5393;SDS011;2720;52.396;10.064;2023-04-06T00:52:21;33.92;;;17.55;;
5393;SDS011;2720;52.396;10.064;2023-04-06T00:54:48;30.92;;;16.50;;
5393;SDS011;2720;52.396;10.064;2023-04-06T00:57:16;29.80;;;16.98;;
5393;SDS011;2720;52.396;10.064;2023-04-06T00:59:43;30.15;;;16.00;;
5393;SDS011;2720;52.396;10.064;2023-04-06T01:02:11;37.65;;;18.40;;
5393;SDS011;2720;52.396;10.064;2023-04-06T01:04:39;31.40;;;15.82;;
5393;SDS011;2720;52.396;10.064;2023-04-06T01:07:06;44.28;;;17.05;;
5393;SDS011;2720;52.396;10.064;2023-04-06T01:09:34;28.67;;;15.85;;
5393;SDS011;2720;52.396;10.064;2023-04-06T01:12:02;32.85;;;18.33;;
5393;SDS011;2720;52.396;10.064;2023-04-06T01:14:29;29.50;;;16.58;;
5393;SDS011;2720;52.396;10.064;2023-04-06T01:16:57;33.25;;;17.55;;
5393;SDS011;2720;52.396;10.064;2023-04-06T01:19:26;28.02;;;16.17;;
5393;SDS011;2720;52.396;10.064;2023-04-06T01:21:53;32.50;;;16.77;;
5393;SDS011;2720;52.396;10.064;2023-04-06T01:24:22;28.80;;;15.70;;
5393;SDS011;2720;52.396;10.064;2023-04-06T01:26:49;33.55;;;16.75;;
5393;SDS011;2720;52.396;10.064;2023-04-06T01:29:16;30.65;;;15.90;;
5393;SDS011;2720;52.396;10.064;2023-04-06T01:31:43;28.80;;;16.58;;
5393;SDS011;2720;52.396;10.064;2023-04-06T01:34:10;37.55;;;18.02;;
5393;SDS011;2720;52.396;10.064;2023-04-06T01:36:37;33.03;;;17.60;;
5393;SDS011;2720;52.396;10.064;2023-04-06T01:39:05;37.78;;;19.10;;
5393;SDS011;2720;52.396;10.064;2023-04-06T01:41:33;29.20;;;16.48;;
5393;SDS011;2720;52.396;10.064;2023-04-06T01:44:00;30.63;;;18.35;;
5393;SDS011;2720;52.396;10.064;2023-04-06T01:46:28;30.75;;;17.75;;
5393;SDS011;2720;52.396;10.064;2023-04-06T01:48:55;33.40;;;17.02;;
5393;SDS011;2720;52.396;10.064;2023-04-06T01:51:22;36.13;;;18.45;;
5393;SDS011;2720;52.396;10.064;2023-04-06T01:53:51;31.85;;;19.00;;
5393;SDS011;2720;52.396;10.064;2023-04-06T01:56:18;31.15;;;17.33;;
5393;SDS011;2720;52.396;10.064;2023-04-06T01:58:46;33.50;;;16.88;;
5393;SDS011;2720;52.396;10.064;2023-04-06T02:01:13;26.50;;;15.98;;
5393;SDS011;2720;52.396;10.064;2023-04-06T02:03:40;29.98;;;16.50;;
5393;SDS011;2720;52.396;10.064;2023-04-06T02:06:07;34.92;;;17.50;;
5393;SDS011;2720;52.396;10.064;2023-04-06T02:08:35;29.35;;;15.95;;
5393;SDS011;2720;52.396;10.064;2023-04-06T02:11:02;26.95;;;15.27;;
5393;SDS011;2720;52.396;10.064;2023-04-06T02:13:29;34.42;;;16.00;;
5393;SDS011;2720;52.396;10.064;2023-04-06T02:15:57;36.63;;;17.08;;
5393;SDS011;2720;52.396;10.064;2023-04-06T02:18:24;26.38;;;16.42;;
5393;SDS011;2720;52.396;10.064;2023-04-06T02:20:52;39.95;;;16.20;;
5393;SDS011;2720;52.396;10.064;2023-04-06T02:23:20;35.08;;;17.20;;
5393;SDS011;2720;52.396;10.064;2023-04-06T02:25:47;35.67;;;17.23;;
5393;SDS011;2720;52.396;10.064;2023-04-06T02:28:14;32.25;;;18.30;;
5393;SDS011;2720;52.396;10.064;2023-04-06T02:30:41;27.30;;;15.63;;
5393;SDS011;2720;52.396;10.064;2023-04-06T02:33:09;28.88;;;15.80;;
5393;SDS011;2720;52.396;10.064;2023-04-06T02:35:36;30.90;;;16.13;;
5393;SDS011;2720;52.396;10.064;2023-04-06T02:38:03;33.33;;;16.55;;
5393;SDS011;2720;52.396;10.064;2023-04-06T02:40:30;41.67;;;18.33;;
5393;SDS011;2720;52.396;10.064;2023-04-06T02:42:57;28.17;;;16.70;;
5393;SDS011;2720;52.396;10.064;2023-04-06T02:45:24;37.70;;;17.42;;
5393;SDS011;2720;52.396;10.064;2023-04-06T02:47:51;30.08;;;17.08;;
5393;SDS011;2720;52.396;10.064;2023-04-06T02:50:20;33.08;;;16.92;;
5393;SDS011;2720;52.396;10.064;2023-04-06T02:52:47;34.40;;;16.92;;
5393;SDS011;2720;52.396;10.064;2023-04-06T02:55:14;33.35;;;16.13;;
5393;SDS011;2720;52.396;10.064;2023-04-06T02:57:41;32.25;;;16.15;;
5393;SDS011;2720;52.396;10.064;2023-04-06T03:00:09;29.00;;;16.17;;
5393;SDS011;2720;52.396;10.064;2023-04-06T03:02:36;34.83;;;15.57;;
5393;SDS011;2720;52.396;10.064;2023-04-06T03:05:04;27.65;;;15.80;;
5393;SDS011;2720;52.396;10.064;2023-04-06T03:07:32;30.10;;;15.55;;
5393;SDS011;2720;52.396;10.064;2023-04-06T03:09:59;31.05;;;15.30;;
5393;SDS011;2720;52.396;10.064;2023-04-06T03:12:26;28.58;;;14.45;;
5393;SDS011;2720;52.396;10.064;2023-04-06T03:14:53;34.38;;;15.98;;
5393;SDS011;2720;52.396;10.064;2023-04-06T03:17:21;31.50;;;14.48;;
5393;SDS011;2720;52.396;10.064;2023-04-06T03:19:48;28.17;;;13.40;;
5393;SDS011;2720;52.396;10.064;2023-04-06T03:22:15;28.85;;;13.60;;
5393;SDS011;2720;52.396;10.064;2023-04-06T03:24:43;24.88;;;12.55;;
5393;SDS011;2720;52.396;10.064;2023-04-06T03:27:10;23.27;;;11.90;;
5393;SDS011;2720;52.396;10.064;2023-04-06T03:29:37;22.80;;;12.55;;
5393;SDS011;2720;52.396;10.064;2023-04-06T03:32:04;26.35;;;12.82;;
5393;SDS011;2720;52.396;10.064;2023-04-06T03:34:31;39.50;;;20.42;;
5393;SDS011;2720;52.396;10.064;2023-04-06T03:36:58;45.67;;;20.98;;
5393;SDS011;2720;52.396;10.064;2023-04-06T03:39:25;46.08;;;21.17;;
5393;SDS011;2720;52.396;10.064;2023-04-06T03:41:54;42.17;;;19.42;;
5393;SDS011;2720;52.396;10.064;2023-04-06T03:44:21;27.25;;;14.05;;
5393;SDS011;2720;52.396;10.064;2023-04-06T03:46:48;25.92;;;12.25;;
5393;SDS011;2720;52.396;10.064;2023-04-06T03:49:15;23.35;;;12.32;;
5393;SDS011;2720;52.396;10.064;2023-04-06T03:51:42;22.95;;;11.73;;
5393;SDS011;2720;52.396;10.064;2023-04-06T03:54:09;18.35;;;10.60;;
5393;SDS011;2720;52.396;10.064;2023-04-06T03:56:37;20.20;;;9.90;;
5393;SDS011;2720;52.396;10.064;2023-04-06T03:59:06;23.33;;;11.75;;
5393;SDS011;2720;52.396;10.064;2023-04-06T04:01:33;18.55;;;10.57;;
5393;SDS011;2720;52.396;10.064;2023-04-06T04:04:00;19.70;;;10.02;;
5393;SDS011;2720;52.396;10.064;2023-04-06T04:06:27;22.40;;;10.07;;
5393;SDS011;2720;52.396;10.064;2023-04-06T04:08:54;19.50;;;10.10;;
5393;SDS011;2720;52.396;10.064;2023-04-06T04:11:21;20.98;;;8.82;;
5393;SDS011;2720;52.396;10.064;2023-04-06T04:13:48;17.50;;;8.57;;
5393;SDS011;2720;52.396;10.064;2023-04-06T04:16:16;16.77;;;9.63;;
5393;SDS011;2720;52.396;10.064;2023-04-06T04:18:43;28.50;;;9.45;;
5393;SDS011;2720;52.396;10.064;2023-04-06T04:21:12;13.43;;;8.82;;
5393;SDS011;2720;52.396;10.064;2023-04-06T04:23:39;21.83;;;9.32;;
5393;SDS011;2720;52.396;10.064;2023-04-06T04:26:06;20.60;;;8.52;;
5393;SDS011;2720;52.396;10.064;2023-04-06T04:28:33;18.55;;;8.43;;
5393;SDS011;2720;52.396;10.064;2023-04-06T04:31:00;22.58;;;8.75;;
5393;SDS011;2720;52.396;10.064;2023-04-06T04:33:29;18.08;;;9.10;;
5393;SDS011;2720;52.396;10.064;2023-04-06T04:35:56;15.63;;;8.93;;
5393;SDS011;2720;52.396;10.064;2023-04-06T04:38:23;16.13;;;8.63;;
5393;SDS011;2720;52.396;10.064;2023-04-06T04:40:50;17.95;;;8.85;;
5393;SDS011;2720;52.396;10.064;2023-04-06T04:43:17;15.27;;;8.18;;
5393;SDS011;2720;52.396;10.064;2023-04-06T04:45:44;12.80;;;7.88;;
5393;SDS011;2720;52.396;10.064;2023-04-06T04:48:11;16.27;;;8.70;;
5393;SDS011;2720;52.396;10.064;2023-04-06T04:50:39;13.10;;;7.80;;
5393;SDS011;2720;52.396;10.064;2023-04-06T04:53:06;17.50;;;9.18;;
5393;SDS011;2720;52.396;10.064;2023-04-06T04:55:33;18.33;;;7.97;;
5393;SDS011;2720;52.396;10.064;2023-04-06T04:58:00;17.27;;;8.38;;
5393;SDS011;2720;52.396;10.064;2023-04-06T05:00:28;16.58;;;8.68;;
5393;SDS011;2720;52.396;10.064;2023-04-06T05:02:55;17.58;;;7.82;;
5393;SDS011;2720;52.396;10.064;2023-04-06T05:05:22;19.50;;;7.55;;
5393;SDS011;2720;52.396;10.064;2023-04-06T05:07:51;12.18;;;8.50;;
5393;SDS011;2720;52.396;10.064;2023-04-06T05:10:18;18.77;;;7.40;;
5393;SDS011;2720;52.396;10.064;2023-04-06T05:12:45;13.35;;;7.95;;
5393;SDS011;2720;52.396;10.064;2023-04-06T05:15:12;13.90;;;8.25;;
5393;SDS011;2720;52.396;10.064;2023-04-06T05:17:39;30.40;;;8.93;;
5393;SDS011;2720;52.396;10.064;2023-04-06T05:20:07;10.65;;;7.20;;
5393;SDS011;2720;52.396;10.064;2023-04-06T05:22:34;14.88;;;8.05;;
5393;SDS011;2720;52.396;10.064;2023-04-06T05:25:03;14.85;;;8.20;;
5393;SDS011;2720;52.396;10.064;2023-04-06T05:27:31;19.88;;;9.07;;
5393;SDS011;2720;52.396;10.064;2023-04-06T05:29:58;13.05;;;8.02;;
5393;SDS011;2720;52.396;10.064;2023-04-06T05:32:25;15.30;;;7.03;;
5393;SDS011;2720;52.396;10.064;2023-04-06T05:34:53;11.98;;;7.35;;
5393;SDS011;2720;52.396;10.064;2023-04-06T05:37:21;17.55;;;7.72;;
5393;SDS011;2720;52.396;10.064;2023-04-06T05:39:48;13.43;;;7.72;;
5393;SDS011;2720;52.396;10.064;2023-04-06T05:42:16;9.73;;;6.40;;
5393;SDS011;2720;52.396;10.064;2023-04-06T05:44:43;13.20;;;7.70;;
5393;SDS011;2720;52.396;10.064;2023-04-06T05:47:10;20.77;;;7.50;;
5393;SDS011;2720;52.396;10.064;2023-04-06T05:49:37;15.07;;;8.07;;
5393;SDS011;2720;52.396;10.064;2023-04-06T05:52:04;18.38;;;10.00;;
5393;SDS011;2720;52.396;10.064;2023-04-06T05:54:31;15.07;;;8.80;;
5393;SDS011;2720;52.396;10.064;2023-04-06T05:56:58;14.77;;;9.03;;
5393;SDS011;2720;52.396;10.064;2023-04-06T05:59:29;11.30;;;7.00;;
5393;SDS011;2720;52.396;10.064;2023-04-06T06:01:56;12.70;;;7.40;;
5393;SDS011;2720;52.396;10.064;2023-04-06T06:04:23;14.60;;;6.80;;
5393;SDS011;2720;52.396;10.064;2023-04-06T06:06:51;11.83;;;6.53;;
5393;SDS011;2720;52.396;10.064;2023-04-06T06:09:18;13.33;;;6.90;;
5393;SDS011;2720;52.396;10.064;2023-04-06T06:11:45;17.30;;;7.50;;
5393;SDS011;2720;52.396;10.064;2023-04-06T06:14:12;10.27;;;6.30;;
5393;SDS011;2720;52.396;10.064;2023-04-06T06:16:40;12.00;;;6.87;;
5393;SDS011;2720;52.396;10.064;2023-04-06T06:19:07;9.93;;;6.63;;
5393;SDS011;2720;52.396;10.064;2023-04-06T06:21:34;11.53;;;6.50;;
5393;SDS011;2720;52.396;10.064;2023-04-06T06:24:01;9.73;;;6.83;;
5393;SDS011;2720;52.396;10.064;2023-04-06T06:26:28;9.93;;;6.47;;
5393;SDS011;2720;52.396;10.064;2023-04-06T06:28:56;14.40;;;7.53;;
5393;SDS011;2720;52.396;10.064;2023-04-06T06:31:23;13.67;;;8.47;;
5393;SDS011;2720;52.396;10.064;2023-04-06T06:33:52;24.03;;;8.30;;
5393;SDS011;2720;52.396;10.064;2023-04-06T06:36:19;16.30;;;7.90;;
5393;SDS011;2720;52.396;10.064;2023-04-06T06:38:46;9.93;;;7.37;;
5393;SDS011;2720;52.396;10.064;2023-04-06T06:41:13;10.97;;;7.10;;
5393;SDS011;2720;52.396;10.064;2023-04-06T06:43:40;15.87;;;6.80;;
5393;SDS011;2720;52.396;10.064;2023-04-06T06:46:07;9.53;;;6.10;;
5393;SDS011;2720;52.396;10.064;2023-04-06T06:48:34;11.13;;;6.53;;
5393;SDS011;2720;52.396;10.064;2023-04-06T06:51:03;15.53;;;7.00;;
5393;SDS011;2720;52.396;10.064;2023-04-06T06:53:30;11.33;;;6.83;;
5393;SDS011;2720;52.396;10.064;2023-04-06T06:55:57;17.97;;;7.10;;
5393;SDS011;2720;52.396;10.064;2023-04-06T06:58:24;14.40;;;6.83;;
5393;SDS011;2720;52.396;10.064;2023-04-06T07:00:55;17.27;;;6.77;;
5393;SDS011;2720;52.396;10.064;2023-04-06T07:03:23;14.33;;;7.43;;
5393;SDS011;2720;52.396;10.064;2023-04-06T07:05:50;13.70;;;7.10;;
5393;SDS011;2720;52.396;10.064;2023-04-06T07:08:20;18.03;;;9.30;;
5393;SDS011;2720;52.396;10.064;2023-04-06T07:10:49;12.30;;;6.70;;
5393;SDS011;2720;52.396;10.064;2023-04-06T07:13:18;14.50;;;7.80;;
5393;SDS011;2720;52.396;10.064;2023-04-06T07:15:47;20.80;;;8.00;;
5393;SDS011;2720;52.396;10.064;2023-04-06T07:18:14;17.10;;;6.73;;
5393;SDS011;2720;52.396;10.064;2023-04-06T07:20:42;15.63;;;7.87;;
5393;SDS011;2720;52.396;10.064;2023-04-06T07:23:09;12.10;;;7.53;;
5393;SDS011;2720;52.396;10.064;2023-04-06T07:25:37;15.23;;;7.70;;
5393;SDS011;2720;52.396;10.064;2023-04-06T07:28:04;20.37;;;8.10;;
5393;SDS011;2720;52.396;10.064;2023-04-06T07:30:32;16.10;;;8.93;;
5393;SDS011;2720;52.396;10.064;2023-04-06T07:32:59;17.80;;;9.10;;
5393;SDS011;2720;52.396;10.064;2023-04-06T07:35:26;15.53;;;8.37;;
5393;SDS011;2720;52.396;10.064;2023-04-06T07:37:55;24.63;;;9.07;;
5393;SDS011;2720;52.396;10.064;2023-04-06T07:40:22;32.00;;;9.10;;
5393;SDS011;2720;52.396;10.064;2023-04-06T07:42:52;22.13;;;9.73;;
5393;SDS011;2720;52.396;10.064;2023-04-06T07:45:20;30.70;;;10.23;;
5393;SDS011;2720;52.396;10.064;2023-04-06T07:47:47;24.10;;;10.53;;
5393;SDS011;2720;52.396;10.064;2023-04-06T07:50:14;23.07;;;9.37;;
5393;SDS011;2720;52.396;10.064;2023-04-06T07:52:42;26.80;;;10.30;;
5393;SDS011;2720;52.396;10.064;2023-04-06T07:55:09;24.40;;;10.37;;
5393;SDS011;2720;52.396;10.064;2023-04-06T07:57:36;22.30;;;8.53;;
5393;SDS011;2720;52.396;10.064;2023-04-06T08:00:05;23.47;;;9.43;;
5393;SDS011;2720;52.396;10.064;2023-04-06T08:02:34;22.40;;;10.30;;
5393;SDS011;2720;52.396;10.064;2023-04-06T08:05:01;24.47;;;9.77;;
5393;SDS011;2720;52.396;10.064;2023-04-06T08:07:28;15.97;;;8.27;;
5393;SDS011;2720;52.396;10.064;2023-04-06T08:09:55;29.77;;;9.80;;
5393;SDS011;2720;52.396;10.064;2023-04-06T08:12:22;14.63;;;8.13;;
5393;SDS011;2720;52.396;10.064;2023-04-06T08:14:49;17.17;;;8.40;;
5393;SDS011;2720;52.396;10.064;2023-04-06T08:17:18;16.90;;;8.20;;
5393;SDS011;2720;52.396;10.064;2023-04-06T08:19:45;16.53;;;8.00;;
5393;SDS011;2720;52.396;10.064;2023-04-06T08:22:12;15.90;;;7.33;;
5393;SDS011;2720;52.396;10.064;2023-04-06T08:24:40;11.90;;;6.00;;
5393;SDS011;2720;52.396;10.064;2023-04-06T08:27:07;13.03;;;6.73;;
5393;SDS011;2720;52.396;10.064;2023-04-06T08:29:34;10.83;;;6.47;;
5393;SDS011;2720;52.396;10.064;2023-04-06T08:32:01;12.93;;;7.07;;
5393;SDS011;2720;52.396;10.064;2023-04-06T08:34:31;18.53;;;7.50;;
5393;SDS011;2720;52.396;10.064;2023-04-06T08:36:58;12.10;;;6.87;;
5393;SDS011;2720;52.396;10.064;2023-04-06T08:39:25;18.73;;;7.07;;
5393;SDS011;2720;52.396;10.064;2023-04-06T08:41:53;16.23;;;7.40;;
5393;SDS011;2720;52.396;10.064;2023-04-06T08:44:22;16.50;;;7.80;;
5393;SDS011;2720;52.396;10.064;2023-04-06T08:46:49;17.00;;;6.83;;
5393;SDS011;2720;52.396;10.064;2023-04-06T08:49:17;14.73;;;6.90;;
5393;SDS011;2720;52.396;10.064;2023-04-06T08:51:46;8.27;;;5.77;;
5393;SDS011;2720;52.396;10.064;2023-04-06T08:54:13;14.40;;;5.77;;
5393;SDS011;2720;52.396;10.064;2023-04-06T08:56:41;9.70;;;5.47;;
5393;SDS011;2720;52.396;10.064;2023-04-06T08:59:08;10.27;;;5.57;;
5393;SDS011;2720;52.396;10.064;2023-04-06T09:01:37;9.53;;;5.90;;
5393;SDS011;2720;52.396;10.064;2023-04-06T09:04:06;10.40;;;6.03;;
5393;SDS011;2720;52.396;10.064;2023-04-06T09:06:35;8.87;;;5.93;;
5393;SDS011;2720;52.396;10.064;2023-04-06T09:09:04;17.93;;;6.70;;
5393;SDS011;2720;52.396;10.064;2023-04-06T09:11:41;8.47;;;4.90;;
5393;SDS011;2720;52.396;10.064;2023-04-06T09:14:09;11.90;;;5.63;;
5393;SDS011;2720;52.396;10.064;2023-04-06T09:16:38;15.30;;;4.90;;
5393;SDS011;2720;52.396;10.064;2023-04-06T09:19:07;12.23;;;6.53;;
5393;SDS011;2720;52.396;10.064;2023-04-06T09:21:34;13.53;;;7.30;;
5393;SDS011;2720;52.396;10.064;2023-04-06T09:24:02;16.73;;;6.57;;
5393;SDS011;2720;52.396;10.064;2023-04-06T09:26:31;9.40;;;5.90;;
5393;SDS011;2720;52.396;10.064;2023-04-06T09:29:00;17.73;;;5.80;;
5393;SDS011;2720;52.396;10.064;2023-04-06T09:31:29;16.40;;;5.53;;
5393;SDS011;2720;52.396;10.064;2023-04-06T09:33:58;10.60;;;5.27;;
5393;SDS011;2720;52.396;10.064;2023-04-06T09:36:29;11.60;;;5.70;;
5393;SDS011;2720;52.396;10.064;2023-04-06T09:38:58;12.40;;;5.60;;
5393;SDS011;2720;52.396;10.064;2023-04-06T09:41:26;12.43;;;5.43;;
5393;SDS011;2720;52.396;10.064;2023-04-06T09:44:02;13.90;;;6.17;;
5393;SDS011;2720;52.396;10.064;2023-04-06T09:46:31;9.83;;;6.90;;
5393;SDS011;2720;52.396;10.064;2023-04-06T09:48:59;9.10;;;5.23;;
5393;SDS011;2720;52.396;10.064;2023-04-06T09:51:28;10.33;;;5.67;;
5393;SDS011;2720;52.396;10.064;2023-04-06T09:53:57;11.40;;;5.50;;
5393;SDS011;2720;52.396;10.064;2023-04-06T09:56:28;7.83;;;4.80;;
5393;SDS011;2720;52.396;10.064;2023-04-06T09:59:02;21.30;;;6.47;;
5393;SDS011;2720;52.396;10.064;2023-04-06T10:01:34;7.90;;;5.03;;
5393;SDS011;2720;52.396;10.064;2023-04-06T10:04:05;11.50;;;4.60;;
5393;SDS011;2720;52.396;10.064;2023-04-06T10:06:39;7.83;;;4.80;;
5393;SDS011;2720;52.396;10.064;2023-04-06T10:09:07;12.63;;;5.87;;
5393;SDS011;2720;52.396;10.064;2023-04-06T10:11:36;9.30;;;4.80;;
5393;SDS011;2720;52.396;10.064;2023-04-06T10:14:04;6.97;;;5.53;;
5393;SDS011;2720;52.396;10.064;2023-04-06T10:16:32;9.07;;;6.20;;
5393;SDS011;2720;52.396;10.064;2023-04-06T10:19:02;10.10;;;4.63;;
5393;SDS011;2720;52.396;10.064;2023-04-06T10:21:36;6.90;;;4.73;;
5393;SDS011;2720;52.396;10.064;2023-04-06T10:24:07;8.93;;;4.87;;
5393;SDS011;2720;52.396;10.064;2023-04-06T10:26:37;4.80;;;4.20;;
5393;SDS011;2720;52.396;10.064;2023-04-06T10:29:06;8.13;;;4.90;;
5393;SDS011;2720;52.396;10.064;2023-04-06T10:31:39;9.40;;;5.07;;
5393;SDS011;2720;52.396;10.064;2023-04-06T10:34:08;9.13;;;5.00;;
5393;SDS011;2720;52.396;10.064;2023-04-06T10:36:35;7.03;;;5.53;;
5393;SDS011;2720;52.396;10.064;2023-04-06T10:39:03;10.93;;;5.67;;
5393;SDS011;2720;52.396;10.064;2023-04-06T10:41:31;7.80;;;5.80;;
5393;SDS011;2720;52.396;10.064;2023-04-06T10:44:00;10.33;;;6.47;;
5393;SDS011;2720;52.396;10.064;2023-04-06T10:46:29;6.43;;;4.90;;
5393;SDS011;2720;52.396;10.064;2023-04-06T10:48:57;8.97;;;5.93;;
5393;SDS011;2720;52.396;10.064;2023-04-06T10:51:26;8.37;;;5.53;;
5393;SDS011;2720;52.396;10.064;2023-04-06T10:53:54;13.17;;;6.30;;
5393;SDS011;2720;52.396;10.064;2023-04-06T10:56:23;14.53;;;5.83;;
5393;SDS011;2720;52.396;10.064;2023-04-06T10:58:53;6.27;;;5.17;;
5393;SDS011;2720;52.396;10.064;2023-04-06T11:01:22;8.57;;;5.77;;
5393;SDS011;2720;52.396;10.064;2023-04-06T11:03:53;10.47;;;5.53;;
5393;SDS011;2720;52.396;10.064;2023-04-06T11:06:23;8.20;;;5.30;;
5393;SDS011;2720;52.396;10.064;2023-04-06T11:08:52;8.27;;;5.10;;
5393;SDS011;2720;52.396;10.064;2023-04-06T11:11:20;10.43;;;5.67;;
5393;SDS011;2720;52.396;10.064;2023-04-06T11:13:51;11.30;;;6.50;;
5393;SDS011;2720;52.396;10.064;2023-04-06T11:16:19;9.20;;;6.30;;
5393;SDS011;2720;52.396;10.064;2023-04-06T11:18:51;7.50;;;5.70;;
5393;SDS011;2720;52.396;10.064;2023-04-06T11:21:31;8.97;;;6.40;;
5393;SDS011;2720;52.396;10.064;2023-04-06T11:24:09;6.00;;;5.40;;
5393;SDS011;2720;52.396;10.064;2023-04-06T11:26:38;9.10;;;5.50;;
5393;SDS011;2720;52.396;10.064;2023-04-06T11:29:06;15.13;;;6.80;;
5393;SDS011;2720;52.396;10.064;2023-04-06T11:31:37;6.70;;;5.10;;
5393;SDS011;2720;52.396;10.064;2023-04-06T11:34:10;7.03;;;5.40;;
5393;SDS011;2720;52.396;10.064;2023-04-06T11:36:39;11.57;;;7.27;;
5393;SDS011;2720;52.396;10.064;2023-04-06T11:39:08;10.87;;;5.80;;
5393;SDS011;2720;52.396;10.064;2023-04-06T11:41:35;8.67;;;6.50;;
5393;SDS011;2720;52.396;10.064;2023-04-06T11:44:02;7.43;;;4.80;;
5393;SDS011;2720;52.396;10.064;2023-04-06T11:46:29;7.03;;;5.70;;
5393;SDS011;2720;52.396;10.064;2023-04-06T11:48:57;6.43;;;5.47;;
5393;SDS011;2720;52.396;10.064;2023-04-06T11:51:27;7.00;;;5.30;;
5393;SDS011;2720;52.396;10.064;2023-04-06T11:53:54;9.60;;;5.50;;
5393;SDS011;2720;52.396;10.064;2023-04-06T11:56:25;6.27;;;5.37;;
5393;SDS011;2720;52.396;10.064;2023-04-06T11:58:54;6.80;;;5.07;;
5393;SDS011;2720;52.396;10.064;2023-04-06T12:01:22;6.67;;;5.33;;
5393;SDS011;2720;52.396;10.064;2023-04-06T12:03:50;7.67;;;5.27;;
5393;SDS011;2720;52.396;10.064;2023-04-06T12:06:18;7.60;;;5.60;;
5393;SDS011;2720;52.396;10.064;2023-04-06T12:08:46;13.00;;;5.90;;
5393;SDS011;2720;52.396;10.064;2023-04-06T12:11:13;9.90;;;6.77;;
5393;SDS011;2720;52.396;10.064;2023-04-06T12:13:40;10.60;;;6.00;;
5393;SDS011;2720;52.396;10.064;2023-04-06T12:16:07;6.70;;;5.30;;
5393;SDS011;2720;52.396;10.064;2023-04-06T12:18:34;8.23;;;6.07;;
5393;SDS011;2720;52.396;10.064;2023-04-06T12:21:01;10.33;;;6.33;;
5393;SDS011;2720;52.396;10.064;2023-04-06T12:23:30;9.70;;;5.33;;
5393;SDS011;2720;52.396;10.064;2023-04-06T12:25:58;7.57;;;5.70;;
5393;SDS011;2720;52.396;10.064;2023-04-06T12:28:26;7.50;;;4.70;;
5393;SDS011;2720;52.396;10.064;2023-04-06T12:30:54;7.73;;;5.60;;
5393;SDS011;2720;52.396;10.064;2023-04-06T12:33:21;9.10;;;6.03;;
5393;SDS011;2720;52.396;10.064;2023-04-06T12:35:48;8.13;;;5.50;;
5393;SDS011;2720;52.396;10.064;2023-04-06T12:38:15;6.27;;;4.83;;
5393;SDS011;2720;52.396;10.064;2023-04-06T12:40:42;9.57;;;5.67;;
5393;SDS011;2720;52.396;10.064;2023-04-06T12:43:11;8.20;;;4.83;;
5393;SDS011;2720;52.396;10.064;2023-04-06T12:45:38;5.37;;;4.10;;
5393;SDS011;2720;52.396;10.064;2023-04-06T12:48:06;6.90;;;5.73;;
5393;SDS011;2720;52.396;10.064;2023-04-06T12:50:33;8.80;;;6.30;;
5393;SDS011;2720;52.396;10.064;2023-04-06T12:53:01;8.97;;;4.77;;
5393;SDS011;2720;52.396;10.064;2023-04-06T12:55:29;6.73;;;5.03;;
5393;SDS011;2720;52.396;10.064;2023-04-06T12:57:59;14.10;;;7.73;;
5393;SDS011;2720;52.396;10.064;2023-04-06T13:00:27;9.70;;;5.70;;
5393;SDS011;2720;52.396;10.064;2023-04-06T13:02:55;12.93;;;5.37;;
5393;SDS011;2720;52.396;10.064;2023-04-06T13:05:22;10.77;;;5.70;;
5393;SDS011;2720;52.396;10.064;2023-04-06T13:07:49;6.63;;;4.77;;
5393;SDS011;2720;52.396;10.064;2023-04-06T13:10:16;9.37;;;6.30;;
5393;SDS011;2720;52.396;10.064;2023-04-06T13:12:43;7.90;;;6.47;;
5393;SDS011;2720;52.396;10.064;2023-04-06T13:15:11;8.77;;;6.33;;
5393;SDS011;2720;52.396;10.064;2023-04-06T13:17:39;12.83;;;5.53;;
5393;SDS011;2720;52.396;10.064;2023-04-06T13:20:07;9.47;;;5.47;;
5393;SDS011;2720;52.396;10.064;2023-04-06T13:22:34;10.23;;;6.27;;
5393;SDS011;2720;52.396;10.064;2023-04-06T13:25:01;6.73;;;5.80;;
5393;SDS011;2720;52.396;10.064;2023-04-06T13:27:29;13.27;;;6.27;;
5393;SDS011;2720;52.396;10.064;2023-04-06T13:29:58;12.13;;;6.67;;
5393;SDS011;2720;52.396;10.064;2023-04-06T13:32:25;7.43;;;5.50;;
5393;SDS011;2720;52.396;10.064;2023-04-06T13:34:55;11.17;;;6.90;;
5393;SDS011;2720;52.396;10.064;2023-04-06T13:37:23;9.53;;;6.83;;
5393;SDS011;2720;52.396;10.064;2023-04-06T13:39:50;13.03;;;6.27;;
5393;SDS011;2720;52.396;10.064;2023-04-06T13:42:17;7.10;;;5.87;;
5393;SDS011;2720;52.396;10.064;2023-04-06T13:44:44;8.20;;;6.20;;
5393;SDS011;2720;52.396;10.064;2023-04-06T13:47:12;6.70;;;5.87;;
5393;SDS011;2720;52.396;10.064;2023-04-06T13:49:40;7.63;;;5.70;;
5393;SDS011;2720;52.396;10.064;2023-04-06T13:52:08;10.83;;;6.20;;
5393;SDS011;2720;52.396;10.064;2023-04-06T13:54:36;9.00;;;5.03;;
5393;SDS011;2720;52.396;10.064;2023-04-06T13:57:03;6.93;;;5.43;;
5393;SDS011;2720;52.396;10.064;2023-04-06T13:59:33;9.83;;;6.43;;
5393;SDS011;2720;52.396;10.064;2023-04-06T14:02:01;10.00;;;6.30;;
5393;SDS011;2720;52.396;10.064;2023-04-06T14:04:28;12.10;;;6.63;;
5393;SDS011;2720;52.396;10.064;2023-04-06T14:06:55;11.53;;;5.50;;
5393;SDS011;2720;52.396;10.064;2023-04-06T14:09:24;15.53;;;7.00;;
5393;SDS011;2720;52.396;10.064;2023-04-06T14:11:51;7.87;;;5.97;;
5393;SDS011;2720;52.396;10.064;2023-04-06T14:14:18;10.93;;;5.33;;
5393;SDS011;2720;52.396;10.064;2023-04-06T14:16:46;7.07;;;5.07;;
5393;SDS011;2720;52.396;10.064;2023-04-06T14:19:14;7.70;;;5.57;;
5393;SDS011;2720;52.396;10.064;2023-04-06T14:21:42;8.63;;;5.83;;
5393;SDS011;2720;52.396;10.064;2023-04-06T14:24:09;10.53;;;6.20;;
5393;SDS011;2720;52.396;10.064;2023-04-06T14:26:39;11.73;;;5.63;;
5393;SDS011;2720;52.396;10.064;2023-04-06T14:29:07;8.73;;;5.50;;
5393;SDS011;2720;52.396;10.064;2023-04-06T14:31:35;11.43;;;5.70;;
5393;SDS011;2720;52.396;10.064;2023-04-06T14:34:02;9.37;;;5.60;;
5393;SDS011;2720;52.396;10.064;2023-04-06T14:36:30;8.30;;;6.00;;
5393;SDS011;2720;52.396;10.064;2023-04-06T14:39:01;13.13;;;6.50;;
5393;SDS011;2720;52.396;10.064;2023-04-06T14:41:29;5.90;;;5.30;;
5393;SDS011;2720;52.396;10.064;2023-04-06T14:43:58;12.20;;;7.37;;
5393;SDS011;2720;52.396;10.064;2023-04-06T14:46:26;10.17;;;4.90;;
5393;SDS011;2720;52.396;10.064;2023-04-06T14:48:54;15.70;;;8.60;;
5393;SDS011;2720;52.396;10.064;2023-04-06T14:51:21;9.90;;;6.40;;